Time;durP1;ratioP1;P1;durP2;ratioP2;P2;SDS_P1;SDS_P2;PMS_P1;PMS_P2;Temp;Humidity;BMP_temperature;BMP_pressure;BME280_temperature;BME280_humidity;BME280_pressure;Samples;Min_cycle;Max_cycle;Signal;HPM_P1;HPM_P2
2022/06/03 14:18:52;;;;;;;8.20;3.72;;;;;;;18.42;58.50;99871.44;5092923;27;20396;-78
2022/06/03 14:21:33;;;;;;;4.88;3.08;;;;;;;18.69;58.66;99858.75;5080100;28;20040;-80
2022/06/03 14:24:05;;;;;;;4.22;2.80;;;;;;;18.84;57.38;99877.41;5081132;28;20041;-80
2022/06/03 14:26:37;;;;;;;4.47;2.88;;;;;;;19.08;56.60;99864.56;5076040;28;20081;-78
2022/06/03 14:29:10;;;;;;;6.93;2.97;;;;;;;19.24;55.85;99862.59;5075159;28;20044;-79
2022/06/03 14:31:50;;;;;;;5.97;2.60;;;;;;;19.19;55.75;99858.09;5079366;28;20062;-78
2022/06/03 14:34:27;;;;;;;6.68;2.83;;;;;;;19.24;55.10;99866.16;5081497;28;20036;-79
2022/06/03 14:36:58;;;;;;;10.13;2.63;;;;;;;19.17;55.71;99863.22;5072032;28;20032;-79
2022/06/03 14:39:34;;;;;;;4.50;3.17;;;;;;;19.22;55.86;99870.47;5074296;28;20043;-79
2022/06/03 14:42:15;;;;;;;7.18;3.10;;;;;;;19.32;55.92;99885.75;5074039;28;20071;-78
2022/06/03 14:44:46;;;;;;;6.75;3.08;;;;;;;18.92;57.08;99879.19;5070251;28;20040;-79
2022/06/03 14:47:20;;;;;;;8.00;4.28;;;;;;;18.90;57.74;99880.69;5073554;28;20257;-77
2022/06/03 14:50:25;;;;;;;8.80;3.65;;;;;;;18.99;57.31;99871.06;5073736;28;20044;-78
2022/06/03 14:53:21;;;;;;;4.95;3.42;;;;;;;19.21;56.44;99868.84;5072423;28;20045;-77
2022/06/03 14:56:05;;;;;;;6.20;2.78;;;;;;;19.15;56.29;99876.63;5070961;28;20101;-78
2022/06/03 14:58:38;;;;;;;5.65;3.10;;;;;;;18.78;57.69;99857.47;5069608;28;20041;-80
2022/06/03 15:01:25;;;;;;;11.50;3.97;;;;;;;19.29;57.09;99872.59;5073111;28;20078;-80
2022/06/03 15:04:01;;;;;;;5.85;2.90;;;;;;;18.89;56.55;99873.56;5071541;28;20098;-79
2022/06/03 15:06:40;;;;;;;4.93;2.92;;;;;;;18.69;57.57;99875.38;5071518;28;20063;-78
2022/06/03 15:09:11;;;;;;;3.67;2.88;;;;;;;18.78;55.85;99870.50;5071610;28;20192;-77
2022/06/03 15:11:57;;;;;;;5.15;2.67;;;;;;;19.27;54.61;99867.44;5068689;28;20049;-77
2022/06/03 15:14:25;;;;;;;3.58;2.55;;;;;;;19.52;53.26;99892.97;5067119;28;20040;-76
2022/06/03 15:17:00;;;;;;;6.43;3.13;;;;;;;19.60;52.46;99877.31;5070453;28;20048;-77
2022/06/03 15:19:48;;;;;;;;;;;;;;;19.65;52.21;99882.63;5070223;28;20947;-76
2022/06/03 15:22:28;;;;;;;9.48;3.30;;;;;;;19.85;52.60;99872.38;5069928;28;19947;-75
2022/06/03 15:25:04;;;;;;;3.97;2.78;;;;;;;19.94;51.99;99884.09;5070237;28;20115;-76
2022/06/03 15:27:39;;;;;;;5.95;3.03;;;;;;;20.05;51.75;99885.13;5067385;28;20041;-78
2022/06/03 15:30:39;;;;;;;12.47;3.50;;;;;;;20.25;50.52;99882.38;5056245;28;20040;-76
2022/06/03 15:33:12;;;;;;;7.68;3.17;;;;;;;20.19;51.57;99890.19;5053611;28;20282;-76
2022/06/03 15:35:40;;;;;;;19.27;3.78;;;;;;;20.25;50.23;99885.94;5056249;28;20074;-78
2022/06/03 15:38:15;;;;;;;10.75;4.80;;;;;;;20.19;50.71;99874.31;5055997;28;20887;-77
2022/06/03 15:40:44;;;;;;;10.65;3.45;;;;;;;20.29;50.05;99874.91;5056558;28;20048;-77
2022/06/03 15:43:26;;;;;;;7.35;2.60;;;;;;;20.26;49.68;99887.53;5054749;28;20033;-77
2022/06/03 15:45:53;;;;;;;23.27;3.50;;;;;;;20.05;50.85;99887.91;5049664;28;20194;-78
2022/06/03 15:48:24;;;;;;;6.25;2.70;;;;;;;19.60;51.47;99875.38;5057819;28;20040;-78
2022/06/03 15:51:11;;;;;;;8.30;2.92;;;;;;;19.51;51.30;99888.59;5054445;28;20047;-78
2022/06/03 15:53:51;;;;;;;15.05;3.45;;;;;;;19.60;51.68;99891.19;5053915;28;20071;-79
2022/06/03 15:56:27;;;;;;;4.25;3.30;;;;;;;19.65;51.24;99893.72;5051117;28;20046;-79
2022/06/03 15:59:12;;;;;;;7.55;4.75;;;;;;;19.66;52.34;99889.78;5050967;28;20032;-76
2022/06/03 16:01:47;;;;;;;12.60;4.97;;;;;;;19.67;52.99;99894.19;5052869;28;20235;-79
2022/06/03 16:04:36;;;;;;;13.77;5.60;;;;;;;19.75;53.25;99887.63;5055244;28;20040;-76
2022/06/03 16:07:24;;;;;;;5.65;2.97;;;;;;;19.61;52.23;99909.44;5055057;28;20041;-75
2022/06/03 16:10:32;;;;;;;6.00;2.92;;;;;;;19.27;52.99;99884.06;5050450;28;20094;-78
2022/06/03 16:13:27;;;;;;;14.80;2.92;;;;;;;19.16;52.80;99883.75;5016187;28;20060;-75
2022/06/03 16:15:56;;;;;;;8.10;3.13;;;;;;;18.89;52.90;99884.63;5052750;28;20633;-78
2022/06/03 16:18:53;;;;;;;10.02;3.00;;;;;;;18.74;54.17;99889.81;5055825;28;20048;-77
2022/06/03 16:21:44;;;;;;;8.82;3.20;;;;;;;18.61;54.55;99891.00;5051261;28;20048;-76
2022/06/03 16:24:22;;;;;;;4.55;2.65;;;;;;;18.56;53.90;99907.84;5052826;28;20141;-77
2022/06/03 16:27:28;;;;;;;8.63;3.00;;;;;;;18.36;54.51;99898.56;5051142;28;20070;-78
2022/06/03 16:30:08;;;;;;;11.30;3.10;;;;;;;18.38;55.92;99910.09;5051687;28;20102;-78
2022/06/03 16:32:54;;;;;;;12.45;3.53;;;;;;;18.20;55.50;99900.47;5051040;28;20042;-82
2022/06/03 16:35:29;;;;;;;6.63;3.33;;;;;;;18.18;55.98;99895.28;5065177;28;20113;-76
2022/06/03 16:38:17;;;;;;;8.10;2.90;;;;;;;18.16;55.03;99894.03;5071708;28;20044;-77
2022/06/03 16:41:03;;;;;;;7.78;4.10;;;;;;;18.03;56.07;99894.03;5070514;28;20047;-79
2022/06/03 16:43:45;;;;;;;6.68;3.60;;;;;;;17.94;56.46;99901.66;5073141;28;20124;-80
2022/06/03 16:46:33;;;;;;;9.15;3.50;;;;;;;18.03;56.99;99899.56;5071740;28;20654;-79
2022/06/03 16:49:23;;;;;;;11.75;3.33;;;;;;;17.94;56.14;99898.09;5071492;28;20044;-79
2022/06/03 16:52:13;;;;;;;10.18;3.40;;;;;;;17.90;56.43;99903.50;5074411;28;20040;-81
2022/06/03 16:54:55;;;;;;;8.23;3.30;;;;;;;17.74;55.88;99897.03;5077998;28;20050;-78
2022/06/03 16:57:25;;;;;;;8.00;3.83;;;;;;;17.76;56.43;99916.88;5077212;28;20161;-80
2022/06/03 17:00:15;;;;;;;28.77;12.80;;;;;;;17.73;56.83;99912.81;5074876;28;20043;-80
2022/06/03 17:03:01;;;;;;;17.50;7.32;;;;;;;17.75;56.35;99910.53;5074515;28;20082;-78
2022/06/03 17:05:27;;;;;;;8.60;4.30;;;;;;;17.77;56.10;99916.53;5075452;28;20039;-81
2022/06/03 17:07:55;;;;;;;11.90;3.85;;;;;;;17.77;56.28;99918.50;5070476;28;20174;-76
2022/06/03 17:10:27;;;;;;;11.93;4.45;;;;;;;17.71;56.97;99917.09;5074282;28;20036;-76
2022/06/03 17:12:59;;;;;;;12.40;4.10;;;;;;;17.73;57.07;99918.34;5072894;28;20072;-76
2022/06/03 17:15:28;;;;;;;10.50;3.13;;;;;;;17.70;57.01;99918.25;5072251;28;20047;-76
2022/06/03 17:17:56;;;;;;;14.80;4.18;;;;;;;17.71;57.37;99912.34;5071147;28;20056;-79
2022/06/03 17:20:22;;;;;;;5.93;3.65;;;;;;;17.64;57.49;99919.63;5069312;28;20047;-75
2022/06/03 17:23:19;;;;;;;8.93;3.90;;;;;;;17.60;56.87;99925.03;5070668;28;20070;-77
2022/06/03 17:26:04;;;;;;;12.25;4.78;;;;;;;17.49;57.67;99921.13;5070555;28;20043;-77
2022/06/03 17:28:59;;;;;;;11.35;5.82;;;;;;;17.52;56.85;99935.06;5065852;28;20075;-77
2022/06/03 17:31:43;;;;;;;9.23;5.40;;;;;;;17.45;57.42;99918.25;5070753;28;20059;-77
2022/06/03 17:34:30;;;;;;;32.38;16.23;;;;;;;17.45;57.18;99921.00;5068385;28;20131;-76
2022/06/03 17:37:06;;;;;;;13.32;6.50;;;;;;;17.22;57.35;99909.59;5069678;28;20036;-83
2022/06/03 17:40:09;;;;;;;15.68;7.35;;;;;;;17.25;57.32;99932.94;5071503;28;20457;-83
2022/06/03 17:42:38;;;;;;;11.68;5.38;;;;;;;17.07;57.86;99919.31;5069537;28;20182;-85
2022/06/03 17:45:22;;;;;;;22.23;9.57;;;;;;;17.08;58.67;99940.28;5069911;28;20042;-87
2022/06/03 17:48:24;;;;;;;40.53;20.33;;;;;;;17.06;58.44;99950.88;5072727;28;20032;-87
2022/06/03 17:51:01;;;;;;;25.90;9.63;;;;;;;16.85;59.53;99928.00;5068595;28;20564;-84
2022/06/03 17:56:50;;;;;;;10.70;4.78;;;;;;;16.85;58.70;99955.63;5092945;28;20062;-88
2022/06/03 17:59:22;;;;;;;11.07;4.38;;;;;;;16.84;59.88;99960.34;5092171;28;20040;-82
2022/06/03 18:01:49;;;;;;;10.00;3.75;;;;;;;16.84;59.50;99962.28;5072963;28;20044;-76
2022/06/03 18:04:18;;;;;;;9.97;4.27;;;;;;;16.86;59.52;99957.25;5071629;28;20451;-77
2022/06/03 18:06:47;;;;;;;12.43;4.40;;;;;;;16.85;58.93;99959.22;5068935;28;20209;-77
2022/06/03 18:09:23;;;;;;;14.20;4.28;;;;;;;16.85;59.62;99964.72;5071442;28;20044;-76
2022/06/03 18:11:50;;;;;;;12.23;4.28;;;;;;;16.86;59.19;99960.00;5071704;28;20090;-77
2022/06/03 18:14:28;;;;;;;9.07;4.57;;;;;;;16.83;59.93;99971.72;5071712;28;20036;-76
2022/06/03 18:17:05;;;;;;;9.85;4.30;;;;;;;16.73;60.97;99975.69;5071020;28;20052;-77
2022/06/03 18:19:37;;;;;;;11.23;4.53;;;;;;;16.60;61.15;99977.56;5070126;28;20040;-79
2022/06/03 18:22:23;;;;;;;12.35;4.50;;;;;;;16.54;60.96;99981.69;5072801;28;20131;-76
2022/06/03 18:25:21;;;;;;;16.10;4.47;;;;;;;16.56;61.45;99982.16;5086580;28;20032;-80
2022/06/03 18:28:08;;;;;;;12.45;4.50;;;;;;;16.54;61.30;99987.19;5074542;28;20097;-78
2022/06/03 18:30:51;;;;;;;15.32;6.90;;;;;;;16.44;61.58;99976.56;5089135;28;20036;-78
2022/06/03 18:34:11;;;;;;;16.83;5.72;;;;;;;16.41;62.33;99991.03;5079346;28;20047;-77
2022/06/03 18:36:56;;;;;;;13.95;5.47;;;;;;;16.30;63.43;99998.91;5059891;28;21561;-79
2022/06/03 18:39:38;;;;;;;15.30;5.40;;;;;;;16.23;63.39;99992.31;5057510;28;20041;-78
2022/06/03 18:45:50;;;;;;;15.63;5.75;;;;;;;15.98;64.16;99992.91;5069704;28;20052;-80
2022/06/03 18:48:39;;;;;;;19.67;5.93;;;;;;;15.91;64.81;99986.31;5079865;28;20082;-80
2022/06/03 18:51:22;;;;;;;12.77;5.70;;;;;;;15.85;64.40;99996.69;5070455;28;20046;-80
2022/06/03 18:53:49;;;;;;;22.20;5.93;;;;;;;15.80;64.97;99993.34;5066404;28;20045;-79
2022/06/03 18:56:18;;;;;;;19.75;5.45;;;;;;;15.75;64.81;99991.56;5069998;28;20040;-78
2022/06/03 18:59:01;;;;;;;15.98;6.00;;;;;;;15.76;65.18;99993.19;5068045;28;20394;-79
2022/06/03 19:01:52;;;;;;;25.02;6.82;;;;;;;15.65;64.93;99980.88;5062754;28;20094;-78
2022/06/03 19:04:36;;;;;;;16.13;7.07;;;;;;;15.67;65.18;99993.22;5079331;28;20048;-78
2022/06/03 19:07:11;;;;;;;25.92;6.68;;;;;;;15.62;65.76;99993.34;5072538;28;20049;-77
2022/06/03 19:10:13;;;;;;;26.90;6.85;;;;;;;15.44;65.98;99980.78;5073591;28;20146;-76
2022/06/03 19:13:23;;;;;;;21.85;7.57;;;;;;;15.51;66.19;99998.44;5050914;28;20418;-77
2022/06/03 19:16:43;;;;;;;33.42;9.38;;;;;;;15.50;65.47;99996.00;5011630;28;20077;-78
2022/06/03 19:19:27;;;;;;;30.98;10.13;;;;;;;15.47;65.51;99996.66;5010856;28;20153;-77
2022/06/03 19:22:07;;;;;;;20.35;9.95;;;;;;;15.48;65.99;100001.03;5073759;28;20032;-77
2022/06/03 19:24:43;;;;;;;37.92;12.50;;;;;;;15.47;65.77;99994.72;5075639;28;20190;-76
2022/06/03 19:27:27;;;;;;;31.63;10.63;;;;;;;15.37;65.59;99995.06;5090772;28;20050;-77
2022/06/03 19:30:05;;;;;;;20.77;8.32;;;;;;;15.26;65.80;99991.88;5075717;28;20139;-78
2022/06/03 19:32:34;;;;;;;30.08;7.57;;;;;;;15.27;65.77;99998.97;5081020;28;20040;-78
2022/06/03 19:35:15;;;;;;;19.48;7.60;;;;;;;15.27;66.13;100001.75;5077186;28;20066;-80
2022/06/03 19:38:10;;;;;;;29.40;7.85;;;;;;;15.20;65.91;99997.88;5071941;28;20048;-76
2022/06/03 19:40:55;;;;;;;34.13;7.55;;;;;;;15.19;65.18;99996.25;5072625;28;20036;-76
2022/06/03 19:43:59;;;;;;;22.10;8.45;;;;;;;15.20;66.03;100004.19;5074048;28;20045;-77
2022/06/03 19:47:02;;;;;;;32.63;8.80;;;;;;;15.16;65.25;99996.88;5072780;28;20044;-77
2022/06/03 19:50:01;;;;;;;24.55;9.95;;;;;;;15.16;66.20;100005.97;5061858;28;20516;-79
2022/06/03 19:52:37;;;;;;;31.63;9.75;;;;;;;15.11;66.09;99999.84;5069794;28;20508;-80
2022/06/03 19:55:22;;;;;;;26.35;8.73;;;;;;;15.08;66.22;100000.47;5072632;28;20071;-78
2022/06/03 19:58:19;;;;;;;34.13;10.35;;;;;;;15.01;66.89;99995.47;5070963;28;20036;-80
2022/06/03 20:00:54;;;;;;;32.92;10.02;;;;;;;15.03;67.33;100009.69;5073673;28;20044;-77
2022/06/03 20:04:11;;;;;;;32.13;10.90;;;;;;;14.89;67.51;100004.38;5072585;28;20036;-78
2022/06/03 20:06:43;;;;;;;25.73;9.82;;;;;;;14.93;67.64;100012.78;5029884;28;20041;-76
2022/06/03 20:09:27;;;;;;;21.88;10.20;;;;;;;14.93;67.54;100012.78;5030351;28;20040;-85
2022/06/03 20:14:52;;;;;;;22.52;11.02;;;;;;;14.87;68.07;100020.44;5030538;28;20034;-86
2022/06/03 20:17:22;;;;;;;25.92;10.32;;;;;;;14.82;68.57;100015.06;5013328;28;20103;-84
2022/06/03 20:19:59;;;;;;;22.27;9.57;;;;;;;14.66;69.03;100002.94;5013778;28;20034;-83
2022/06/03 20:22:51;;;;;;;31.27;9.80;;;;;;;14.73;69.00;100011.50;5030194;28;20038;-83
2022/06/03 20:25:44;;;;;;;31.67;9.23;;;;;;;14.73;68.68;100023.31;5030009;28;20128;-82
2022/06/03 20:28:31;;;;;;;24.15;8.70;;;;;;;14.74;68.97;100015.91;5029962;28;20045;-84
2022/06/03 20:31:22;;;;;;;28.30;9.52;;;;;;;14.71;69.25;100022.84;5026915;28;20037;-89
2022/06/03 20:34:00;;;;;;;16.48;8.73;;;;;;;14.66;69.12;100034.00;5030399;28;20042;-86
2022/06/03 20:36:42;;;;;;;21.08;8.68;;;;;;;14.61;69.43;100023.16;5038236;28;20059;-87
2022/06/03 20:39:41;;;;;;;26.70;8.52;;;;;;;14.59;69.67;100032.88;5072531;28;20040;-85
2022/06/03 20:42:25;;;;;;;22.08;8.60;;;;;;;14.54;69.67;100031.09;5076568;28;20131;-84
2022/06/03 20:45:06;;;;;;;25.55;8.27;;;;;;;14.56;69.64;100028.81;5070709;28;20032;-89
2022/06/03 20:47:57;;;;;;;22.25;9.10;;;;;;;14.51;69.89;100031.75;5084454;28;20040;-84
2022/06/03 20:50:32;;;;;;;18.30;9.35;;;;;;;14.48;70.24;100035.91;5054969;28;20431;-84
2022/06/03 20:53:05;;;;;;;19.85;8.85;;;;;;;14.40;70.48;100027.63;5072122;28;20123;-84
2022/06/03 20:55:41;;;;;;;28.48;9.15;;;;;;;14.46;70.54;100031.84;5075150;28;20048;-83
2022/06/03 20:58:21;;;;;;;20.02;8.88;;;;;;;14.45;70.78;100033.78;5075104;28;20127;-92
2022/06/03 21:01:07;;;;;;;20.83;9.55;;;;;;;14.32;70.71;100019.03;5073653;28;20037;-84
2022/06/03 21:14:44;;;;;;;29.60;9.90;;;;;;;14.28;71.64;100028.25;5073036;28;20102;-86
2022/06/03 21:17:10;;;;;;;25.90;9.90;;;;;;;14.20;71.72;100020.78;5077334;28;20059;-85
2022/06/03 21:19:38;;;;;;;19.17;9.73;;;;;;;14.19;71.72;100033.72;5074991;28;20059;-85
2022/06/03 21:22:46;;;;;;;22.52;10.13;;;;;;;14.17;71.92;100036.00;5080352;28;20500;-90
2022/06/03 21:25:16;;;;;;;22.75;10.45;;;;;;;14.06;72.27;100032.72;5082234;28;20531;-83
2022/06/03 21:27:42;;;;;;;26.52;9.85;;;;;;;14.10;72.23;100039.22;5080868;28;20472;-85
2022/06/03 21:30:09;;;;;;;;;;;;;;;14.10;72.18;100041.13;5084319;28;20063;-84
2022/06/03 21:33:16;;;;;;;21.70;9.37;;;;;;;14.04;72.08;100046.00;5081711;28;20365;-84
2022/06/03 21:35:55;;;;;;;17.05;9.40;;;;;;;14.06;72.12;100043.72;5022932;28;20049;-82
2022/06/03 21:38:36;;;;;;;23.27;8.45;;;;;;;13.98;71.84;100040.94;5039598;28;20053;-85
2022/06/03 21:41:18;;;;;;;16.88;8.38;;;;;;;13.91;71.63;100024.09;5050426;28;20110;-85
2022/06/03 21:43:45;;;;;;;14.70;8.82;;;;;;;14.04;71.63;100043.25;5054842;28;20045;-85
2022/06/03 21:46:23;;;;;;;31.15;9.80;;;;;;;14.03;71.98;100040.78;5036001;28;20080;-85
2022/06/03 21:49:17;;;;;;;21.70;9.57;;;;;;;14.00;72.05;100049.69;5043250;28;20048;-86
2022/06/03 21:51:52;;;;;;;22.35;9.45;;;;;;;14.00;72.29;100049.69;5023638;28;20041;-84
2022/06/03 21:54:25;;;;;;;24.25;9.65;;;;;;;13.96;72.35;100043.19;5023576;28;20076;-82
2022/06/03 21:57:00;;;;;;;24.83;9.88;;;;;;;13.95;72.63;100047.09;5040787;28;20048;-83
2022/06/03 22:00:03;;;;;;;21.05;10.75;;;;;;;13.88;72.76;100049.50;5036686;28;20055;-84
2022/06/03 22:02:33;;;;;;;23.35;9.38;;;;;;;13.77;72.57;100036.00;5042084;28;20052;-85
2022/06/03 22:05:02;;;;;;;20.52;9.23;;;;;;;13.80;72.29;100051.84;5018604;28;20041;-82
2022/06/03 22:07:35;;;;;;;19.83;8.60;;;;;;;13.75;71.45;100052.00;5070921;28;20066;-89
2022/06/03 22:10:04;;;;;;;20.70;8.48;;;;;;;13.57;70.99;100018.13;5073357;28;20100;-84
2022/06/03 22:12:45;;;;;;;16.17;8.00;;;;;;;13.79;70.48;100049.44;5072565;28;20531;-83
2022/06/03 22:15:25;;;;;;;23.17;7.75;;;;;;;13.77;69.57;100060.72;5072726;28;20505;-85
2022/06/03 22:17:53;;;;;;;18.77;7.30;;;;;;;13.59;69.54;100028.81;5068302;28;20056;-84
2022/06/03 22:20:22;;;;;;;15.30;6.28;;;;;;;13.84;67.85;100060.28;5073177;28;20060;-85
2022/06/03 22:22:50;;;;;;;9.68;5.70;;;;;;;13.79;67.47;100049.44;5073099;28;20033;-89
2022/06/03 22:25:17;;;;;;;17.80;6.18;;;;;;;13.82;67.96;100060.59;5072583;28;20039;-84
2022/06/03 22:27:50;;;;;;;12.70;6.53;;;;;;;13.82;67.43;100051.56;5071893;28;20162;-83
2022/06/03 22:30:21;;;;;;;16.15;5.72;;;;;;;13.82;66.64;100057.06;5061245;28;20041;-83
2022/06/03 22:33:08;;;;;;;16.40;5.55;;;;;;;13.82;66.88;100059.81;5070694;28;20047;-84
2022/06/03 22:35:49;;;;;;;17.50;6.15;;;;;;;13.73;66.77;100054.25;5072441;28;20076;-82
2022/06/03 22:41:19;;;;;;;20.17;5.85;;;;;;;13.74;66.50;100066.06;5076558;28;20451;-90
2022/06/03 22:43:57;;;;;;;16.08;5.63;;;;;;;13.68;66.97;100059.09;5075159;28;20043;-84
2022/06/03 22:46:35;;;;;;;9.65;4.95;;;;;;;13.71;65.53;100064.75;5076664;28;20037;-83
2022/06/03 22:49:04;;;;;;;15.45;5.38;;;;;;;13.66;65.94;100050.34;5079183;28;20397;-86
2022/06/03 22:51:30;;;;;;;13.00;4.95;;;;;;;13.74;65.13;100068.78;5078293;28;20040;-81
2022/06/03 22:53:57;;;;;;;11.35;4.30;;;;;;;13.65;64.66;100065.22;5075748;28;20501;-85
2022/06/03 22:56:25;;;;;;;16.73;5.03;;;;;;;13.51;65.28;100037.81;5075489;28;20119;-92
2022/06/03 22:58:53;;;;;;;8.27;4.57;;;;;;;13.62;64.45;100056.47;5075223;28;20467;-84
2022/06/03 23:01:22;;;;;;;11.98;4.90;;;;;;;13.56;64.75;100056.91;5073895;28;20044;-84
2022/06/03 23:03:49;;;;;;;11.18;4.82;;;;;;;13.70;63.99;100074.13;5055121;28;20083;-85
2022/06/03 23:06:16;;;;;;;10.40;4.67;;;;;;;13.71;63.80;100066.69;5055194;28;20041;-85
2022/06/03 23:08:47;;;;;;;8.88;4.03;;;;;;;13.76;64.16;100066.56;5057976;28;20286;-85
2022/06/03 23:11:14;;;;;;;20.30;4.50;;;;;;;13.59;63.31;100053.53;5074072;28;20082;-86
2022/06/03 23:13:43;;;;;;;8.63;5.05;;;;;;;13.61;63.64;100065.03;5076349;28;20458;-92
2022/06/03 23:16:09;;;;;;;10.55;4.72;;;;;;;13.73;63.05;100081.72;5074319;28;20051;-84
2022/06/03 23:18:38;;;;;;;8.20;4.55;;;;;;;13.75;63.58;100075.94;5075087;28;20048;-82
2022/06/03 23:21:05;;;;;;;12.95;5.72;;;;;;;13.74;63.28;100077.88;5074874;28;20032;-88
2022/06/03 23:23:37;;;;;;;8.68;4.47;;;;;;;13.69;63.47;100082.69;5074447;28;20409;-88
2022/06/03 23:26:10;;;;;;;7.60;4.40;;;;;;;13.69;62.70;100082.69;5074748;28;20040;-85
2022/06/03 23:28:38;;;;;;;7.72;4.35;;;;;;;13.67;62.66;100079.44;5089736;28;20565;-90
2022/06/03 23:31:07;;;;;;;11.02;4.45;;;;;;;13.65;62.48;100078.94;5082624;28;20051;-85
2022/06/03 23:33:33;;;;;;;7.88;4.70;;;;;;;13.49;62.75;100056.56;5085372;28;20036;-87
2022/06/03 23:35:59;;;;;;;9.07;4.75;;;;;;;13.47;61.50;100043.13;5079143;28;20035;-83
2022/06/03 23:38:26;;;;;;;14.02;4.55;;;;;;;13.55;62.45;100049.81;5076874;28;20059;-87
2022/06/03 23:40:54;;;;;;;12.57;4.30;;;;;;;13.69;61.64;100071.69;5072801;28;20044;-87
2022/06/03 23:46:08;;;;;;;7.20;4.57;;;;;;;13.63;61.57;100062.75;5073567;28;20037;-85
2022/06/03 23:48:35;;;;;;;8.50;4.13;;;;;;;13.69;61.99;100078.00;5059487;28;20084;-83
2022/06/03 23:51:02;;;;;;;12.23;4.60;;;;;;;13.69;62.16;100082.69;5076334;28;20040;-88
2022/06/03 23:53:29;;;;;;;11.88;4.68;;;;;;;13.42;62.89;100043.25;5057457;28;20516;-85
2022/06/03 23:55:57;;;;;;;9.95;5.13;;;;;;;13.57;63.22;100086.00;5086169;28;20051;-82
2022/06/03 23:58:27;;;;;;;13.07;4.47;;;;;;;13.34;62.23;100055.00;5093948;28;20044;-82
